Time;durP1;ratioP1;P1;durP2;ratioP2;P2;SDS_P1;SDS_P2;PMS_P1;PMS_P2;Temp;Humidity;BMP_temperature;BMP_pressure;BME280_temperature;BME280_humidity;BME280_pressure;Samples;Min_cycle;Max_cycle;Signal;HPM_P1;HPM_P2
2022/04/23 00:01:49;;;;;;;19.40;15.38;;;;;;;11.74;63.40;100166.06;3563476;40;20402;-63
2022/04/23 00:04:15;;;;;;;20.38;15.38;;;;;;;12.01;63.53;100216.09;3564089;40;20660;-64
2022/04/23 00:06:43;;;;;;;18.75;15.27;;;;;;;11.96;63.76;100210.22;3571808;40;20064;-64
2022/04/23 00:09:09;;;;;;;18.75;15.90;;;;;;;11.97;64.15;100217.31;3560558;40;20128;-63
2022/04/23 00:11:35;;;;;;;17.45;15.10;;;;;;;11.88;64.29;100207.25;3571277;40;20065;-64
2022/04/23 00:14:02;;;;;;;21.08;15.43;;;;;;;11.94;64.39;100207.63;3564331;40;20060;-63
2022/04/23 00:16:27;;;;;;;19.38;15.48;;;;;;;11.93;64.74;100215.84;3572406;40;20150;-64
2022/04/23 00:18:53;;;;;;;19.77;15.02;;;;;;;11.89;64.88;100211.63;3562657;40;20399;-64
2022/04/23 00:21:19;;;;;;;19.05;15.43;;;;;;;11.72;64.49;100186.84;3567147;40;20065;-64
2022/04/23 00:23:48;;;;;;;17.13;15.18;;;;;;;11.81;64.76;100223.84;3570476;40;20054;-64
2022/04/23 00:26:14;;;;;;;17.20;15.20;;;;;;;11.78;64.66;100217.84;3569970;40;20067;-63
2022/04/23 00:28:40;;;;;;;19.38;15.40;;;;;;;11.72;65.36;100213.78;3566085;40;20068;-64
2022/04/23 00:31:05;;;;;;;19.27;16.08;;;;;;;11.73;65.70;100215.47;3567957;40;20055;-64
2022/04/23 00:33:34;;;;;;;17.35;15.50;;;;;;;11.67;65.20;100215.97;3563920;40;20080;-63
2022/04/23 00:35:59;;;;;;;19.20;16.02;;;;;;;11.66;65.96;100216.94;3572007;40;20060;-63
2022/04/23 00:38:25;;;;;;;18.38;15.88;;;;;;;11.63;66.05;100209.94;3569401;40;20048;-64
2022/04/23 00:40:51;;;;;;;21.35;16.15;;;;;;;11.10;65.56;100130.56;3564955;40;20056;-64
2022/04/23 00:43:47;;;;;;;21.40;16.23;;;;;;;11.58;66.07;100216.66;3565181;40;20142;-64
2022/04/23 00:46:13;;;;;;;18.50;15.60;;;;;;;11.55;65.87;100212.38;3570610;40;20248;-64
2022/04/23 00:48:39;;;;;;;20.00;16.70;;;;;;;11.12;66.68;100140.25;3565401;40;20052;-64
2022/04/23 00:51:04;;;;;;;19.83;16.67;;;;;;;11.51;66.49;100215.38;3572398;40;20136;-64
2022/04/23 00:53:31;;;;;;;18.67;16.55;;;;;;;11.47;67.12;100213.91;3572694;40;20057;-65
2022/04/23 00:55:58;;;;;;;18.58;16.15;;;;;;;11.43;66.50;100207.06;3567447;40;20064;-64
2022/04/23 00:58:27;;;;;;;20.65;16.23;;;;;;;11.39;67.25;100212.66;3569434;40;20063;-64
2022/04/23 01:00:52;;;;;;;19.92;16.58;;;;;;;11.38;66.64;100210.06;3571072;40;20366;-64
2022/04/23 01:03:18;;;;;;;20.17;17.00;;;;;;;11.36;67.41;100207.50;3572338;40;20056;-64
2022/04/23 01:05:46;;;;;;;19.15;16.95;;;;;;;11.34;67.31;100212.13;3565898;40;20057;-64
2022/04/23 01:08:18;;;;;;;18.65;16.08;;;;;;;11.31;67.14;100208.81;3571176;40;20055;-64
2022/04/23 01:10:45;;;;;;;20.42;17.08;;;;;;;11.28;67.67;100209.91;3567751;40;20060;-65
2022/04/23 01:13:14;;;;;;;20.95;17.17;;;;;;;11.28;67.88;100200.97;3572543;40;20048;-64
2022/04/23 01:15:55;;;;;;;23.42;17.75;;;;;;;11.27;67.66;100213.59;3568714;40;20110;-65
2022/04/23 01:18:21;;;;;;;20.20;16.13;;;;;;;11.25;68.00;100204.75;3576895;40;20708;-64
2022/04/23 01:20:48;;;;;;;22.10;17.38;;;;;;;11.27;67.38;100202.81;3565729;40;20044;-64
2022/04/23 01:23:14;;;;;;;20.33;18.00;;;;;;;11.25;68.16;100207.44;3570464;40;20044;-64
2022/04/23 01:25:39;;;;;;;19.30;17.17;;;;;;;11.24;67.99;100204.88;3574409;40;20427;-64
2022/04/23 01:28:08;;;;;;;22.38;18.30;;;;;;;11.21;68.32;100203.28;3570123;40;20052;-64
2022/04/23 01:30:33;;;;;;;20.63;18.27;;;;;;;11.23;68.14;100216.63;3569906;40;20438;-64
2022/04/23 01:32:59;;;;;;;21.48;18.45;;;;;;;11.21;68.47;100213.19;3572507;40;20108;-63
2022/04/23 01:35:25;;;;;;;21.73;17.67;;;;;;;11.18;68.16;100214.25;3564429;40;20056;-64
2022/04/23 01:37:50;;;;;;;20.27;17.73;;;;;;;10.74;68.47;100139.56;3561109;40;20384;-63
2022/04/23 01:40:16;;;;;;;25.38;18.58;;;;;;;11.19;67.97;100213.28;3568423;40;20059;-64
2022/04/23 01:42:42;;;;;;;23.27;18.17;;;;;;;11.20;68.36;100216.84;3571906;40;20134;-63
2022/04/23 01:45:08;;;;;;;20.88;18.52;;;;;;;11.15;68.66;100212.66;3564453;40;20887;-63
2022/04/23 01:47:34;;;;;;;20.40;18.08;;;;;;;11.14;68.05;100212.78;3572852;40;20561;-64
2022/04/23 01:50:00;;;;;;;20.45;17.83;;;;;;;11.16;68.68;100218.88;3568889;40;20076;-64
2022/04/23 01:52:25;;;;;;;25.13;19.17;;;;;;;11.09;68.28;100206.88;3564499;40;20056;-63
2022/04/23 01:54:51;;;;;;;20.67;18.48;;;;;;;11.08;68.20;100216.78;3564050;40;20063;-64
2022/04/23 01:57:17;;;;;;;26.50;19.42;;;;;;;11.12;68.33;100225.47;3571132;40;20149;-64
2022/04/23 01:59:42;;;;;;;22.50;18.83;;;;;;;11.12;69.05;100226.31;3574485;40;20055;-64
2022/04/23 02:02:08;;;;;;;23.92;19.73;;;;;;;11.10;68.55;100219.34;3564944;40;20049;-64
2022/04/23 02:04:33;;;;;;;24.55;19.73;;;;;;;11.09;69.28;100225.69;3571172;40;20051;-64
2022/04/23 02:07:00;;;;;;;23.98;19.85;;;;;;;11.08;68.59;100226.69;3563259;40;20068;-63
2022/04/23 02:09:26;;;;;;;23.55;19.27;;;;;;;11.06;69.38;100218.72;3572682;40;20358;-64
2022/04/23 02:11:52;;;;;;;22.13;19.77;;;;;;;11.04;68.92;100219.81;3565827;40;20083;-64
2022/04/23 02:14:17;;;;;;;23.70;19.88;;;;;;;11.04;69.64;100222.50;3573915;40;20588;-64
2022/04/23 02:16:43;;;;;;;25.63;21.42;;;;;;;11.04;69.58;100222.50;3570453;40;20117;-64
2022/04/23 02:19:09;;;;;;;24.30;20.98;;;;;;;10.95;69.64;100210.59;3567606;40;20072;-65
2022/04/23 02:21:34;;;;;;;25.17;21.75;;;;;;;11.01;69.19;100217.34;3571628;40;20079;-65
2022/04/23 02:24:03;;;;;;;25.52;21.08;;;;;;;11.03;69.08;100216.25;3563030;40;20338;-63
2022/04/23 02:26:29;;;;;;;25.73;21.02;;;;;;;11.01;70.00;100214.66;3573285;40;20080;-64
2022/04/23 02:28:55;;;;;;;25.25;22.10;;;;;;;10.99;69.62;100220.13;3565460;40;20311;-64
2022/04/23 02:31:20;;;;;;;26.52;20.85;;;;;;;10.99;70.02;100219.28;3569573;40;20052;-64
2022/04/23 02:33:46;;;;;;;24.73;21.63;;;;;;;10.97;69.89;100221.22;3567544;40;20041;-63
2022/04/23 02:36:15;;;;;;;24.88;21.60;;;;;;;10.84;70.09;100197.91;3568963;40;20095;-64
2022/04/23 02:38:40;;;;;;;26.45;23.20;;;;;;;10.88;69.77;100202.13;3563981;40;20055;-64
2022/04/23 02:41:08;;;;;;;26.23;22.58;;;;;;;10.94;70.49;100206.16;3567598;40;20060;-64
2022/04/23 02:43:35;;;;;;;26.55;22.42;;;;;;;10.92;69.70;100214.34;3568389;40;20056;-64
2022/04/23 02:46:02;;;;;;;25.02;22.33;;;;;;;10.90;70.24;100210.91;3570528;40;20052;-63
2022/04/23 02:48:31;;;;;;;27.45;23.08;;;;;;;10.75;70.57;100189.66;3567887;40;20041;-64
2022/04/23 02:50:57;;;;;;;28.55;23.75;;;;;;;10.88;70.23;100212.88;3558765;40;20064;-63
2022/04/23 02:53:23;;;;;;;27.17;23.60;;;;;;;10.86;70.81;100208.56;3562863;40;20074;-64
2022/04/23 02:55:51;;;;;;;26.60;23.67;;;;;;;10.83;70.88;100211.47;3575044;40;20060;-63
2022/04/23 02:58:17;;;;;;;29.20;24.20;;;;;;;10.71;70.74;100191.72;3570602;40;20055;-64
2022/04/23 03:00:43;;;;;;;26.80;23.90;;;;;;;10.74;70.97;100196.88;3570877;40;20060;-63
2022/04/23 03:03:11;;;;;;;30.52;24.02;;;;;;;10.77;71.22;100204.72;3565521;40;20054;-64
2022/04/23 03:05:42;;;;;;;29.98;24.98;;;;;;;10.78;70.77;100203.72;3574956;40;20055;-63
2022/04/23 03:08:09;;;;;;;28.83;24.88;;;;;;;10.77;71.46;100204.72;3569624;40;20142;-64
2022/04/23 03:10:35;;;;;;;32.15;25.25;;;;;;;10.74;71.32;100202.25;3563602;40;20048;-64
2022/04/23 03:13:00;;;;;;;30.20;25.30;;;;;;;10.75;70.97;100201.28;3569841;40;20075;-63
2022/04/23 03:15:27;;;;;;;28.52;25.25;;;;;;;10.70;71.75;100192.69;3575130;40;20070;-64
2022/04/23 03:18:11;;;;;;;31.52;25.77;;;;;;;10.75;71.67;100197.72;3566943;40;20130;-64
2022/04/23 03:20:41;;;;;;;30.08;26.50;;;;;;;10.74;71.61;100204.94;3575457;40;20107;-64
2022/04/23 03:23:07;;;;;;;33.78;27.05;;;;;;;10.71;71.24;100194.41;3564909;40;20659;-64
2022/04/23 03:25:33;;;;;;;30.65;27.35;;;;;;;10.56;71.54;100180.25;3568105;40;20048;-64
2022/04/23 03:28:00;;;;;;;30.27;25.88;;;;;;;10.60;71.73;100191.66;3568143;40;20420;-63
2022/04/23 03:30:27;;;;;;;31.83;27.35;;;;;;;10.68;71.31;100208.06;3569682;40;20057;-63
2022/04/23 03:32:53;;;;;;;31.27;27.38;;;;;;;10.67;72.10;100198.28;3566599;40;20324;-65
2022/04/23 03:35:19;;;;;;;29.73;26.25;;;;;;;10.67;71.37;100199.16;3564476;40;20058;-64
2022/04/23 03:37:45;;;;;;;31.70;27.63;;;;;;;10.67;71.67;100200.97;3572975;40;20048;-63
2022/04/23 03:40:12;;;;;;;31.15;27.02;;;;;;;10.53;72.13;100185.84;3559457;40;20075;-64
2022/04/23 03:42:38;;;;;;;42.15;34.25;;;;;;;10.51;71.86;100178.88;3570940;40;20103;-63
2022/04/23 03:45:09;;;;;;;37.13;31.35;;;;;;;10.58;72.52;100199.81;3572308;40;20056;-63
2022/04/23 03:47:35;;;;;;;30.20;26.45;;;;;;;10.53;72.57;100184.97;3573568;40;20056;-64
2022/04/23 03:50:08;;;;;;;32.38;27.73;;;;;;;10.47;72.41;100180.06;3565605;40;20056;-63
2022/04/23 03:52:34;;;;;;;30.65;27.30;;;;;;;10.54;72.09;100202.84;3571424;40;20048;-65
2022/04/23 03:55:00;;;;;;;31.50;27.38;;;;;;;10.38;72.28;100170.84;3565110;40;20054;-65
2022/04/23 03:57:27;;;;;;;32.92;27.95;;;;;;;10.35;72.74;100161.16;3574672;40;20075;-63
2022/04/23 03:59:52;;;;;;;32.90;28.50;;;;;;;10.39;72.49;100176.09;3611893;22;20090;-65
2022/04/23 04:02:18;;;;;;;32.85;28.25;;;;;;;10.49;72.95;100186.16;3591426;39;20198;-66
2022/04/23 04:04:45;;;;;;;32.20;27.50;;;;;;;10.33;72.60;100163.09;3589183;39;20087;-66
2022/04/23 04:07:19;;;;;;;35.45;29.23;;;;;;;10.49;72.97;100184.34;3591142;39;20705;-65
2022/04/23 04:09:45;;;;;;;32.92;28.67;;;;;;;10.44;73.02;100171.25;3589886;39;20110;-65
2022/04/23 04:12:10;;;;;;;33.35;28.13;;;;;;;10.35;73.11;100161.16;3573343;39;20070;-65
2022/04/23 04:14:37;;;;;;;33.22;28.73;;;;;;;10.48;72.48;100179.09;3584021;40;20322;-65
2022/04/23 04:17:11;;;;;;;33.75;29.35;;;;;;;10.42;72.40;100169.63;3580206;39;20374;-66
2022/04/23 04:19:38;;;;;;;33.17;28.83;;;;;;;10.35;73.11;100154.94;3584591;40;20378;-64
2022/04/23 04:22:06;;;;;;;33.00;29.40;;;;;;;10.43;72.75;100174.91;3576825;39;20580;-65
2022/04/23 04:24:32;;;;;;;35.17;29.15;;;;;;;10.38;73.17;100166.31;3586770;40;20441;-65
2022/04/23 04:27:00;;;;;;;33.80;29.48;;;;;;;10.41;73.31;100167.94;3572714;39;20410;-66
2022/04/23 04:29:27;;;;;;;34.28;27.92;;;;;;;10.41;73.64;100171.47;3585860;39;20067;-65
2022/04/23 04:31:54;;;;;;;32.45;28.67;;;;;;;10.39;73.44;100169.84;3583156;40;20087;-65
2022/04/23 04:34:28;;;;;;;33.42;28.67;;;;;;;10.39;73.40;100168.03;3581899;40;20050;-65
2022/04/23 04:37:06;;;;;;;32.95;28.38;;;;;;;10.43;73.55;100172.22;3576414;39;20330;-65
2022/04/23 04:39:32;;;;;;;36.55;29.02;;;;;;;10.46;73.36;100173.81;3581360;40;20060;-66
2022/04/23 04:41:58;;;;;;;33.45;28.88;;;;;;;10.45;73.38;100178.34;3571462;39;20056;-65
2022/04/23 04:44:24;;;;;;;36.42;30.00;;;;;;;10.48;73.61;100176.41;3580686;40;20064;-64
2022/04/23 04:46:49;;;;;;;34.25;28.63;;;;;;;10.49;73.57;100183.47;3584931;40;20359;-64
2022/04/23 04:49:15;;;;;;;34.65;28.80;;;;;;;10.50;73.01;100180.72;3581212;40;20067;-64
2022/04/23 04:51:41;;;;;;;34.45;28.58;;;;;;;10.51;73.20;100181.56;3578147;39;20054;-65
2022/04/23 04:54:07;;;;;;;36.75;29.67;;;;;;;10.44;73.15;100171.25;3578700;40;20655;-65
2022/04/23 04:56:33;;;;;;;32.80;27.92;;;;;;;10.57;73.34;100181.13;3574965;39;20056;-64
2022/04/23 04:59:00;;;;;;;34.15;28.35;;;;;;;9.84;73.49;100063.66;3579118;40;20044;-65
2022/04/23 05:01:26;;;;;;;31.90;28.45;;;;;;;10.59;73.00;100181.84;3581271;40;20052;-65
2022/04/23 05:03:53;;;;;;;34.67;28.95;;;;;;;10.54;73.82;100187.56;3584763;40;20051;-65
2022/04/23 05:06:20;;;;;;;32.80;28.35;;;;;;;10.55;73.51;100181.22;3579207;39;20059;-64
2022/04/23 05:08:46;;;;;;;32.63;28.67;;;;;;;10.64;73.41;100187.75;3582905;40;20060;-65
2022/04/23 05:11:13;;;;;;;31.70;28.27;;;;;;;10.63;72.97;100181.53;3580547;40;20079;-65
2022/04/23 05:13:38;;;;;;;30.83;27.42;;;;;;;10.67;72.79;100183.00;3574474;39;20060;-63
2022/04/23 05:16:08;;;;;;;31.40;27.98;;;;;;;10.79;72.48;100183.97;3580840;40;20549;-65
2022/04/23 05:18:34;;;;;;;33.50;28.98;;;;;;;10.74;73.28;100172.69;3583653;40;20051;-64
2022/04/23 05:21:01;;;;;;;31.73;28.33;;;;;;;10.87;72.27;100183.38;3570011;40;20052;-64
2022/04/23 05:23:27;;;;;;;35.15;28.85;;;;;;;10.86;72.56;100185.22;3577385;39;20055;-64
2022/04/23 05:25:53;;;;;;;31.63;28.17;;;;;;;10.91;72.16;100191.13;3577324;39;20057;-65
2022/04/23 05:28:19;;;;;;;35.25;27.98;;;;;;;10.95;72.86;100188.22;3569099;39;20136;-64
2022/04/23 05:30:45;;;;;;;31.73;28.25;;;;;;;10.98;72.26;100185.31;3582521;40;20091;-64
2022/04/23 05:33:11;;;;;;;31.60;28.17;;;;;;;10.96;72.02;100173.78;3579523;40;20733;-64
2022/04/23 05:35:38;;;;;;;31.55;27.80;;;;;;;10.84;72.34;100146.81;3582558;40;20121;-64
2022/04/23 05:38:05;;;;;;;33.13;27.08;;;;;;;11.01;72.41;100168.94;3575890;39;20044;-64
2022/04/23 05:40:31;;;;;;;31.63;27.45;;;;;;;11.05;71.71;100170.44;3580502;40;20318;-63
2022/04/23 05:43:00;;;;;;;30.67;27.38;;;;;;;11.11;71.68;100175.34;3575349;39;20052;-65
2022/04/23 05:45:29;;;;;;;32.70;28.05;;;;;;;11.13;71.44;100168.00;3586421;39;20048;-63
2022/04/23 05:47:56;;;;;;;32.25;27.55;;;;;;;11.23;71.89;100182.50;3582197;40;20390;-65
2022/04/23 05:50:23;;;;;;;31.88;27.02;;;;;;;11.20;71.51;100173.81;3581786;40;20059;-64
2022/04/23 05:52:49;;;;;;;32.35;26.90;;;;;;;11.24;71.28;100181.53;3584068;39;20052;-64
2022/04/23 05:55:16;;;;;;;30.20;26.48;;;;;;;11.26;71.42;100170.63;3576566;39;20117;-64
2022/04/23 05:57:41;;;;;;;30.30;27.10;;;;;;;11.18;71.31;100149.69;3582117;40;20462;-63
2022/04/23 06:00:11;;;;;;;32.38;26.90;;;;;;;11.39;71.18;100183.06;3571464;39;20096;-64
2022/04/23 06:02:37;;;;;;;30.23;27.02;;;;;;;11.33;70.77;100170.06;3583060;40;20060;-64
2022/04/23 06:05:05;;;;;;;30.98;26.65;;;;;;;11.41;70.52;100172.16;3580146;40;20121;-64
2022/04/23 06:07:31;;;;;;;30.30;26.17;;;;;;;11.54;70.88;100182.84;3581589;40;20383;-64
2022/04/23 06:09:57;;;;;;;29.75;26.33;;;;;;;11.41;70.52;100160.56;3579275;39;20060;-64
2022/04/23 06:12:23;;;;;;;30.02;26.83;;;;;;;11.58;69.91;100173.59;3582430;40;20047;-64
2022/04/23 06:14:51;;;;;;;29.92;26.65;;;;;;;11.22;69.75;100107.28;3578740;39;20059;-64
2022/04/23 06:17:24;;;;;;;28.20;25.20;;;;;;;11.76;69.40;100174.00;3583068;40;20056;-64
2022/04/23 06:19:50;;;;;;;28.13;25.20;;;;;;;11.69;69.39;100165.53;3583283;40;20052;-65
2022/04/23 06:22:15;;;;;;;28.80;25.70;;;;;;;11.89;69.72;100182.00;3582760;39;20188;-64
2022/04/23 06:24:41;;;;;;;28.80;25.70;;;;;;;11.91;68.90;100169.31;3576249;39;20040;-64
2022/04/23 06:27:07;;;;;;;28.80;25.85;;;;;;;11.62;68.66;100110.47;3580170;40;20067;-63
2022/04/23 06:29:32;;;;;;;27.85;24.83;;;;;;;12.02;68.30;100174.69;3583555;40;20071;-63
2022/04/23 06:31:58;;;;;;;27.65;24.70;;;;;;;12.21;68.94;100188.47;3573409;39;20426;-65
2022/04/23 06:34:24;;;;;;;29.08;25.75;;;;;;;12.31;68.04;100188.59;3584995;40;20310;-64
2022/04/23 06:36:49;;;;;;;27.38;24.20;;;;;;;12.42;67.30;100180.47;3586839;40;20058;-65
2022/04/23 06:39:15;;;;;;;32.75;25.38;;;;;;;12.71;66.67;100179.97;3580201;39;20060;-64
2022/04/23 06:41:40;;;;;;;38.97;25.85;;;;;;;12.96;65.50;100184.22;3586378;40;20387;-64
2022/04/23 06:44:06;;;;;;;28.70;24.05;;;;;;;13.21;64.73;100175.81;3582700;39;20102;-65
2022/04/23 06:46:31;;;;;;;31.58;23.58;;;;;;;13.47;63.87;100183.59;3578872;39;20059;-65
2022/04/23 06:49:00;;;;;;;26.08;22.58;;;;;;;13.65;62.28;100173.09;3579174;40;20048;-65
2022/04/23 06:51:25;;;;;;;25.55;22.38;;;;;;;13.89;62.44;100180.94;3584102;40;20058;-64
2022/04/23 06:53:51;;;;;;;39.53;23.63;;;;;;;14.08;61.46;100178.38;3584440;39;20095;-64
2022/04/23 06:56:17;;;;;;;28.52;23.25;;;;;;;14.29;61.40;100181.03;3578365;39;20044;-64
2022/04/23 06:58:46;;;;;;;26.20;23.50;;;;;;;14.45;60.63;100174.28;3577748;39;20041;-63
2022/04/23 07:01:11;;;;;;;24.63;21.88;;;;;;;14.48;59.81;100142.41;3571303;39;20048;-63
2022/04/23 07:03:37;;;;;;;24.60;22.10;;;;;;;14.74;59.46;100174.41;3583736;40;20063;-63
2022/04/23 07:06:03;;;;;;;25.30;21.17;;;;;;;14.83;58.37;100165.47;3579826;40;20610;-62
2022/04/23 07:08:29;;;;;;;26.75;21.70;;;;;;;14.74;58.72;100125.72;3581883;40;20119;-63
2022/04/23 07:10:54;;;;;;;23.48;21.08;;;;;;;15.13;58.04;100159.13;3577090;39;20105;-63
2022/04/23 07:13:20;;;;;;;23.88;21.10;;;;;;;15.22;57.36;100155.59;3576081;39;20070;-65
2022/04/23 07:15:46;;;;;;;23.45;21.05;;;;;;;15.40;56.99;100166.53;3582679;40;20062;-61
2022/04/23 07:18:12;;;;;;;24.77;21.15;;;;;;;15.55;56.88;100159.72;3570934;39;20444;-63
2022/04/23 07:20:40;;;;;;;23.65;21.15;;;;;;;15.69;55.84;100154.88;3583147;40;20055;-64
2022/04/23 07:25:52;;;;;;;22.77;20.48;;;;;;;16.07;55.40;100158.53;3578621;39;20090;-63
2022/04/23 07:28:22;;;;;;;23.35;20.88;;;;;;;16.24;54.52;100155.91;3576481;39;20075;-64
2022/04/23 07:30:48;;;;;;;23.40;20.95;;;;;;;16.31;54.45;100139.91;3581684;40;20052;-62
2022/04/23 07:37:28;;;;;;;21.90;19.60;;;;;;;16.38;53.28;100143.72;3573634;39;20055;-63
2022/04/23 07:38:57;;;;;;;21.63;19.33;;;;;;;16.25;51.77;100070.81;3566462;40;20369;-62
2022/04/23 07:41:23;;;;;;;21.83;19.73;;;;;;;16.82;51.89;100148.53;3578501;39;20140;-63
2022/04/23 07:43:48;;;;;;;21.80;19.50;;;;;;;16.83;51.16;100129.38;3581108;39;20066;-62
2022/04/23 07:46:14;;;;;;;20.25;18.15;;;;;;;17.10;51.58;100152.06;3578993;39;20618;-63
2022/04/23 07:48:39;;;;;;;22.00;19.20;;;;;;;17.13;49.70;100136.31;3572440;39;20052;-64
2022/04/23 07:51:05;;;;;;;21.45;19.25;;;;;;;17.24;50.76;100150.69;3579557;40;20075;-64
2022/04/23 07:53:31;;;;;;;20.60;18.50;;;;;;;17.23;49.77;100132.69;3582897;40;20286;-64
2022/04/23 07:55:57;;;;;;;20.88;18.65;;;;;;;17.43;48.41;100153.25;3578955;39;20051;-62
2022/04/23 07:58:22;;;;;;;19.95;17.83;;;;;;;17.49;49.86;100136.31;3581310;40;20523;-65
2022/04/23 08:00:48;;;;;;;20.30;17.83;;;;;;;17.58;48.53;100138.09;3576607;39;20063;-62
2022/04/23 08:03:15;;;;;;;21.33;18.58;;;;;;;17.67;48.35;100133.59;3574007;39;21610;-65
2022/04/23 08:05:41;;;;;;;21.65;17.83;;;;;;;17.90;48.47;100139.41;3572771;40;20055;-64
2022/04/23 08:08:07;;;;;;;19.45;17.45;;;;;;;18.06;47.65;100136.78;3580107;40;20218;-64
2022/04/23 08:10:33;;;;;;;19.17;17.17;;;;;;;18.16;46.95;100128.50;3582567;40;20080;-66
2022/04/23 08:12:59;;;;;;;19.50;17.13;;;;;;;18.15;46.87;100132.25;3577293;39;20044;-62
2022/04/23 08:15:26;;;;;;;21.02;17.00;;;;;;;18.19;46.98;100127.34;3575130;39;20102;-64
2022/04/23 08:17:52;;;;;;;20.92;17.63;;;;;;;18.17;47.22;100124.75;3575556;39;20335;-63
2022/04/23 08:20:18;;;;;;;19.15;17.15;;;;;;;18.18;46.63;100120.19;3580377;39;20751;-64
2022/04/23 08:22:44;;;;;;;19.00;16.92;;;;;;;18.41;46.20;100123.22;3584587;40;20052;-62
2022/04/23 08:25:10;;;;;;;20.10;17.40;;;;;;;18.54;45.16;100113.56;3580648;40;20745;-64
2022/04/23 08:27:53;;;;;;;22.70;17.00;;;;;;;18.50;45.52;100119.50;3576953;39;20052;-64
2022/04/23 08:30:42;;;;;;;20.60;16.48;;;;;;;18.63;45.24;100110.88;3575074;39;20168;-64
2022/04/23 08:33:08;;;;;;;19.23;17.33;;;;;;;18.78;45.00;100123.72;3578752;40;20081;-64
2022/04/23 08:35:36;;;;;;;19.58;16.95;;;;;;;18.86;45.33;100122.03;3576009;39;20327;-64
2022/04/23 08:38:04;;;;;;;18.25;16.45;;;;;;;18.97;44.79;100125.31;3577869;40;20052;-62
2022/04/23 08:40:44;;;;;;;19.10;16.92;;;;;;;19.14;44.87;100109.84;3580148;40;20060;-64
2022/04/23 08:43:10;;;;;;;20.17;18.00;;;;;;;19.16;44.54;100116.00;3574558;39;20044;-64
2022/04/23 08:45:39;;;;;;;19.08;17.05;;;;;;;19.43;43.84;100119.41;3583691;40;20379;-65
2022/04/23 08:48:11;;;;;;;19.30;17.27;;;;;;;19.57;43.14;100110.56;3574854;39;20070;-64
2022/04/23 08:50:39;;;;;;;19.27;17.17;;;;;;;19.45;42.92;100071.03;3574420;39;20088;-64
2022/04/23 08:53:15;;;;;;;19.70;17.42;;;;;;;19.80;42.98;100121.66;3577820;40;20137;-64
2022/04/23 08:55:45;;;;;;;19.88;17.77;;;;;;;20.04;41.80;100117.19;3581843;40;20052;-64
2022/04/23 08:58:13;;;;;;;20.10;18.00;;;;;;;20.11;42.09;100116.34;3576024;39;20068;-64
2022/04/23 09:00:39;;;;;;;20.85;17.95;;;;;;;20.23;42.96;100088.66;3584760;40;20048;-64
2022/04/23 09:03:05;;;;;;;19.88;17.75;;;;;;;20.38;42.12;100116.94;3574472;39;20108;-65
2022/04/23 09:05:31;;;;;;;18.77;16.88;;;;;;;20.54;41.72;100122.34;3574684;39;20437;-64
2022/04/23 09:07:57;;;;;;;20.90;18.63;;;;;;;20.43;40.89;100120.00;3578671;40;20048;-63
2022/04/23 09:10:59;;;;;;;20.77;18.58;;;;;;;20.27;42.05;100128.25;3582592;40;20408;-65
2022/04/23 09:13:31;;;;;;;20.95;18.85;;;;;;;20.23;41.60;100132.31;3583474;40;20052;-65
2022/04/23 09:24:48;;;;;;;22.77;20.38;;;;;;;20.04;42.58;100136.28;3584456;40;20314;-65
2022/04/23 09:27:15;;;;;;;23.40;19.25;;;;;;;20.15;41.65;100134.06;3582174;40;20671;-65
2022/04/23 09:30:00;;;;;;;21.73;19.42;;;;;;;20.42;42.17;100131.94;3580992;39;20067;-65
2022/04/23 09:32:27;;;;;;;22.30;20.00;;;;;;;20.40;41.82;100134.84;3578697;39;20064;-65
2022/04/23 09:35:07;;;;;;;21.73;19.52;;;;;;;20.52;40.97;100129.00;3581736;40;20060;-64
2022/04/23 09:40:27;;;;;;;23.65;21.35;;;;;;;20.22;41.48;100133.38;3582825;40;20710;-64
2022/04/23 09:43:05;;;;;;;21.85;19.55;;;;;;;20.24;41.67;100132.16;3582503;40;20043;-63
2022/04/23 09:45:34;;;;;;;22.40;20.20;;;;;;;20.24;41.35;100107.59;3581283;39;20051;-65
2022/04/23 09:48:05;;;;;;;25.02;20.92;;;;;;;20.40;42.45;100131.25;3580610;40;20052;-63
2022/04/23 09:50:46;;;;;;;26.90;20.52;;;;;;;20.64;41.23;100109.34;3577754;39;20095;-64
2022/04/23 09:53:16;;;;;;;22.80;20.45;;;;;;;20.70;42.04;100096.00;3575359;39;20049;-63
2022/04/23 09:55:43;;;;;;;22.08;19.85;;;;;;;21.15;42.14;100118.97;3583551;40;20048;-65
2022/04/23 09:58:10;;;;;;;20.92;18.83;;;;;;;21.39;40.52;100137.97;3582011;40;20066;-65
2022/04/23 10:00:41;;;;;;;22.40;20.05;;;;;;;21.47;39.62;100132.47;3621552;22;20035;-63
2022/04/23 10:03:09;;;;;;;22.25;19.95;;;;;;;21.47;39.18;100117.91;3600135;39;20183;-62
2022/04/23 10:05:42;;;;;;;20.40;18.35;;;;;;;21.50;39.83;100106.59;3596962;39;20312;-61
2022/04/23 10:08:15;;;;;;;20.77;18.65;;;;;;;21.40;38.35;100070.47;3590977;39;20940;-61
2022/04/23 10:11:07;;;;;;;21.70;18.65;;;;;;;21.83;38.88;100118.13;3598040;39;20056;-62
2022/04/23 10:13:35;;;;;;;21.02;18.92;;;;;;;21.96;38.59;100114.75;3592522;39;20121;-60
2022/04/23 10:16:03;;;;;;;25.38;19.38;;;;;;;21.86;38.54;100117.75;3579256;39;20055;-61
2022/04/23 10:18:29;;;;;;;23.65;18.88;;;;;;;21.89;37.58;100106.44;3592513;39;20074;-62
2022/04/23 10:21:02;;;;;;;20.25;18.00;;;;;;;21.85;38.97;100104.25;3584472;39;20470;-61
2022/04/23 10:23:58;;;;;;;;;;;;;;;21.71;38.01;100059.41;3574907;39;20132;-62
2022/04/23 10:26:50;;;;;;;20.70;18.20;;;;;;;21.92;38.43;100095.13;3593218;39;19958;-60
2022/04/23 10:29:23;;;;;;;18.92;16.95;;;;;;;22.11;38.57;100103.84;3582767;40;20608;-62
2022/04/23 10:32:18;;;;;;;21.83;19.67;;;;;;;21.98;37.44;100102.59;3578570;39;20137;-62
2022/04/23 10:34:44;;;;;;;20.55;18.58;;;;;;;21.70;38.21;100106.97;3593446;39;20041;-61
2022/04/23 10:37:24;;;;;;;21.98;19.60;;;;;;;21.44;38.66;100108.22;3576028;39;20653;-62
2022/04/23 10:39:53;;;;;;;22.98;20.45;;;;;;;21.15;39.01;100110.75;3583629;39;20140;-61
2022/04/23 10:42:24;;;;;;;23.10;19.33;;;;;;;21.08;39.81;100103.28;3593555;39;20044;-63
2022/04/23 10:44:55;;;;;;;24.17;20.02;;;;;;;21.31;39.21;100102.44;3594178;39;20091;-61
2022/04/23 10:47:34;;;;;;;21.80;19.10;;;;;;;21.43;39.02;100106.50;3589059;39;20761;-63
2022/04/23 10:50:19;;;;;;;22.75;20.45;;;;;;;21.43;38.51;100098.28;3583860;39;20051;-61
2022/04/23 10:52:49;;;;;;;38.53;20.77;;;;;;;21.65;39.03;100103.94;3589922;39;20039;-61
2022/04/23 10:55:15;;;;;;;38.90;20.88;;;;;;;21.67;38.18;100047.16;3580138;39;20096;-63
2022/04/23 10:57:51;;;;;;;23.45;20.27;;;;;;;21.94;38.12;100112.19;3592397;39;20286;-63
2022/04/23 11:00:23;;;;;;;21.13;19.05;;;;;;;22.22;37.13;100097.91;3593080;39;20060;-63
2022/04/23 11:03:08;;;;;;;22.20;19.92;;;;;;;22.34;37.66;100093.66;3579589;39;20070;-63
2022/04/23 11:14:41;;;;;;;23.13;19.13;;;;;;;22.96;36.62;100089.59;3589578;39;20684;-63
2022/04/23 11:17:12;;;;;;;29.25;20.33;;;;;;;22.90;36.14;100088.47;3590760;39;20099;-63
2022/04/23 11:19:42;;;;;;;21.90;19.75;;;;;;;22.96;36.47;100077.81;3585812;39;20049;-62
2022/04/23 11:22:11;;;;;;;21.42;19.35;;;;;;;23.01;35.76;100078.94;3584162;39;20503;-63
2022/04/23 11:24:38;;;;;;;21.60;19.35;;;;;;;22.89;35.35;100085.91;3589951;39;20074;-61
2022/04/23 11:27:04;;;;;;;21.58;19.48;;;;;;;22.75;36.36;100084.94;3575760;39;20071;-61
2022/04/23 11:29:30;;;;;;;26.08;19.95;;;;;;;23.02;35.28;100077.03;3590605;39;20052;-62
2022/04/23 11:31:56;;;;;;;22.73;19.23;;;;;;;23.42;35.74;100074.69;3586372;39;20067;-60
2022/04/23 11:34:23;;;;;;;19.80;17.70;;;;;;;23.82;35.22;100085.00;3585616;39;20051;-62
2022/04/23 11:36:49;;;;;;;19.80;17.77;;;;;;;23.83;34.36;100077.59;3590081;39;20086;-61
2022/04/23 11:39:15;;;;;;;19.42;17.50;;;;;;;23.68;35.13;100076.81;3584369;39;20726;-63
2022/04/23 11:41:43;;;;;;;20.98;18.98;;;;;;;23.51;34.78;100074.38;3581910;39;20060;-61